Time;durP1;ratioP1;P1;durP2;ratioP2;P2;SDS_P1;SDS_P2;PMS_P1;PMS_P2;Temp;Humidity;BMP_temperature;BMP_pressure;BME280_temperature;BME280_humidity;BME280_pressure;Samples;Min_cycle;Max_cycle;Signal;HPM_P1;HPM_P2
2021/07/17 00:01:08;;;;;;;1.23;0.70;;;;;;;;;;5089912;28;20572;-62
2021/07/17 00:03:38;;;;;;;0.73;0.73;;;;;;;;;;5088204;28;20141;-62
2021/07/17 00:06:05;;;;;;;3.03;0.70;;;;;;;;;;5089126;28;20028;-62
2021/07/17 00:08:32;;;;;;;0.70;0.70;;;;;;;;;;5089297;28;20064;-62
2021/07/17 00:10:59;;;;;;;0.70;0.70;;;;;;;;;;5093780;28;20036;-63
2021/07/17 00:13:25;;;;;;;1.95;0.70;;;;;;;;;;5091331;28;20027;-62
2021/07/17 00:15:52;;;;;;;0.60;0.60;;;;;;;;;;5090259;28;20051;-62
2021/07/17 00:18:19;;;;;;;1.40;0.70;;;;;;;;;;5092181;28;20097;-62
2021/07/17 00:20:47;;;;;;;1.60;0.70;;;;;;;;;;5090576;28;20048;-63
2021/07/17 00:23:14;;;;;;;2.67;0.70;;;;;;;;;;5091455;28;20075;-61
2021/07/17 00:25:43;;;;;;;0.80;0.80;;;;;;;;;;5089615;28;20470;-61
2021/07/17 00:28:10;;;;;;;1.00;0.70;;;;;;;;;;5088944;28;20118;-62
2021/07/17 00:30:37;;;;;;;3.00;1.33;;;;;;;;;;5093280;28;20032;-62
2021/07/17 00:33:04;;;;;;;0.80;0.80;;;;;;;;;;5091712;28;20101;-62
2021/07/17 00:35:31;;;;;;;1.60;0.70;;;;;;;;;;5075999;28;20127;-63
2021/07/17 00:37:57;;;;;;;2.45;0.70;;;;;;;;;;5089465;28;20052;-62
2021/07/17 00:40:24;;;;;;;0.80;0.80;;;;;;;;;;5090328;28;20093;-62
2021/07/17 00:42:51;;;;;;;0.70;0.70;;;;;;;;;;5093246;28;20426;-63
2021/07/17 00:45:21;;;;;;;1.85;0.80;;;;;;;;;;5088816;28;20123;-62
2021/07/17 00:47:49;;;;;;;2.90;0.70;;;;;;;;;;5079426;28;20032;-62
2021/07/17 00:50:18;;;;;;;2.05;0.70;;;;;;;;;;5089062;28;20361;-62
2021/07/17 00:52:45;;;;;;;1.55;0.73;;;;;;;;;;5083744;28;20050;-62
2021/07/17 00:55:13;;;;;;;1.42;0.70;;;;;;;;;;5090204;28;20052;-63
2021/07/17 00:57:41;;;;;;;0.70;0.70;;;;;;;;;;5089284;28;20419;-62
2021/07/17 01:00:09;;;;;;;3.60;0.70;;;;;;;;;;5079331;28;20115;-63
2021/07/17 01:02:45;;;;;;;3.53;0.70;;;;;;;;;;5085976;28;20044;-62
2021/07/17 01:05:16;;;;;;;0.68;0.68;;;;;;;;;;5087937;28;20044;-62
2021/07/17 01:07:44;;;;;;;1.13;0.77;;;;;;;;;;5090937;28;20068;-62
2021/07/17 01:10:12;;;;;;;0.70;0.70;;;;;;;;;;5088021;28;20089;-62
2021/07/17 01:12:39;;;;;;;0.88;0.70;;;;;;;;;;5089016;28;20063;-63
2021/07/17 01:15:06;;;;;;;0.70;0.70;;;;;;;;;;5080857;28;20071;-63
2021/07/17 01:17:33;;;;;;;2.38;0.98;;;;;;;;;;5085477;28;20357;-63
2021/07/17 01:20:01;;;;;;;1.70;0.70;;;;;;;;;;5089841;28;20055;-62
2021/07/17 01:22:28;;;;;;;1.85;0.70;;;;;;;;;;5088492;28;20527;-62
2021/07/17 01:24:55;;;;;;;2.28;0.80;;;;;;;;;;5089624;28;20040;-63
2021/07/17 01:27:22;;;;;;;3.33;0.70;;;;;;;;;;5079030;28;20048;-62
2021/07/17 01:29:49;;;;;;;1.98;0.70;;;;;;;;;;5089773;28;20158;-62
2021/07/17 01:32:19;;;;;;;1.38;0.95;;;;;;;;;;5074113;28;20492;-62
2021/07/17 01:34:46;;;;;;;1.52;0.70;;;;;;;;;;5088266;28;20636;-63
2021/07/17 01:37:13;;;;;;;0.70;0.70;;;;;;;;;;5086238;28;20056;-62
2021/07/17 01:39:40;;;;;;;1.30;0.70;;;;;;;;;;5091507;28;20039;-63
2021/07/17 01:42:08;;;;;;;2.70;0.80;;;;;;;;;;5092582;28;20043;-63
2021/07/17 01:44:41;;;;;;;0.65;0.65;;;;;;;;;;5088793;28;20091;-62
2021/07/17 01:47:08;;;;;;;1.45;0.80;;;;;;;;;;5090416;28;20043;-63
2021/07/17 01:49:35;;;;;;;2.33;0.70;;;;;;;;;;5087430;28;20048;-62
2021/07/17 01:52:02;;;;;;;1.33;0.70;;;;;;;;;;5089720;28;20143;-66
2021/07/17 01:54:35;;;;;;;2.25;0.70;;;;;;;;;;5085649;28;20036;-62
2021/07/17 01:57:02;;;;;;;0.98;0.70;;;;;;;;;;5073995;28;20052;-62
2021/07/17 01:59:29;;;;;;;0.70;0.70;;;;;;;;;;5092325;28;20503;-62
2021/07/17 02:01:56;;;;;;;0.70;0.70;;;;;;;;;;5097782;28;20101;-62
2021/07/17 02:04:24;;;;;;;0.88;0.80;;;;;;;;;;5084275;28;20036;-62
2021/07/17 02:06:51;;;;;;;3.72;0.65;;;;;;;;;;5085423;28;20047;-63
2021/07/17 02:09:17;;;;;;;2.05;0.70;;;;;;;;;;5082417;28;20417;-63
2021/07/17 02:11:44;;;;;;;2.17;0.80;;;;;;;;;;5085154;28;20043;-63
2021/07/17 02:14:11;;;;;;;3.40;0.85;;;;;;;;;;5087238;28;20419;-63
2021/07/17 02:16:39;;;;;;;3.42;0.80;;;;;;;;;;5089398;28;20044;-62
2021/07/17 02:19:21;;;;;;;1.95;1.10;;;;;;;;;;5086766;28;20059;-63
2021/07/17 02:21:52;;;;;;;1.63;0.80;;;;;;;;;;5085840;28;20060;-62
2021/07/17 02:24:19;;;;;;;0.80;0.80;;;;;;;;;;5086298;28;20048;-62
2021/07/17 02:26:46;;;;;;;1.60;0.80;;;;;;;;;;5086357;28;20115;-62
2021/07/17 02:29:13;;;;;;;0.85;0.80;;;;;;;;;;5086842;28;20108;-62
2021/07/17 02:31:43;;;;;;;0.80;0.80;;;;;;;;;;5090536;28;20405;-63
2021/07/17 02:34:10;;;;;;;1.60;0.70;;;;;;;;;;5085981;28;20524;-63
2021/07/17 02:36:38;;;;;;;8.60;0.80;;;;;;;;;;5070891;28;20090;-62
2021/07/17 02:39:06;;;;;;;1.98;0.80;;;;;;;;;;5085243;28;20831;-62
2021/07/17 02:41:32;;;;;;;1.50;0.80;;;;;;;;;;5096963;28;20044;-62
2021/07/17 02:43:59;;;;;;;0.70;0.70;;;;;;;;;;5089194;28;20359;-63
2021/07/17 02:46:26;;;;;;;2.20;0.70;;;;;;;;;;5086765;28;20043;-62
2021/07/17 02:48:54;;;;;;;1.73;0.80;;;;;;;;;;5085094;28;20051;-63
2021/07/17 02:51:21;;;;;;;3.80;0.70;;;;;;;;;;5092086;28;20051;-63
2021/07/17 02:53:48;;;;;;;3.03;0.70;;;;;;;;;;5091913;28;20035;-62
2021/07/17 02:56:14;;;;;;;1.50;0.68;;;;;;;;;;5101779;28;20043;-62
2021/07/17 02:58:41;;;;;;;2.38;0.77;;;;;;;;;;5094570;28;20039;-62
2021/07/17 03:01:08;;;;;;;0.70;0.70;;;;;;;;;;5092173;28;20572;-62
2021/07/17 03:03:35;;;;;;;1.05;0.80;;;;;;;;;;5086906;28;20064;-62
2021/07/17 03:06:02;;;;;;;1.08;0.77;;;;;;;;;;5085338;28;20122;-63
2021/07/17 03:08:29;;;;;;;0.85;0.80;;;;;;;;;;5083344;28;20032;-62
2021/07/17 03:10:56;;;;;;;0.77;0.70;;;;;;;;;;5088458;28;20054;-62
2021/07/17 03:13:23;;;;;;;1.55;0.90;;;;;;;;;;5092642;28;20028;-62
2021/07/17 03:15:50;;;;;;;1.17;0.80;;;;;;;;;;5087059;28;20448;-62
2021/07/17 03:18:22;;;;;;;1.77;0.70;;;;;;;;;;5091767;28;20044;-61
2021/07/17 03:20:49;;;;;;;1.27;1.00;;;;;;;;;;5084681;28;20048;-62
2021/07/17 03:23:16;;;;;;;3.65;0.70;;;;;;;;;;5088287;28;20096;-62
2021/07/17 03:25:42;;;;;;;4.13;0.80;;;;;;;;;;5089806;28;20044;-61
2021/07/17 03:28:09;;;;;;;6.45;0.70;;;;;;;;;;5088013;28;20089;-63
2021/07/17 03:30:36;;;;;;;1.77;0.95;;;;;;;;;;5091702;28;20535;-62
2021/07/17 03:33:03;;;;;;;0.80;0.80;;;;;;;;;;5092184;28;20077;-62
2021/07/17 03:35:30;;;;;;;3.05;0.80;;;;;;;;;;5091029;28;20460;-62
2021/07/17 03:37:57;;;;;;;1.83;0.98;;;;;;;;;;5089837;28;20154;-62
2021/07/17 03:40:24;;;;;;;0.77;0.73;;;;;;;;;;5096785;28;20088;-62
2021/07/17 03:42:51;;;;;;;3.15;0.90;;;;;;;;;;5089636;28;20036;-62
2021/07/17 03:45:18;;;;;;;1.63;0.75;;;;;;;;;;5091963;28;20042;-62
2021/07/17 03:47:44;;;;;;;0.80;0.80;;;;;;;;;;5090431;28;20041;-62
2021/07/17 03:50:11;;;;;;;4.70;0.80;;;;;;;;;;5087648;28;20116;-62
2021/07/17 03:52:38;;;;;;;4.30;0.80;;;;;;;;;;5091812;28;20127;-62
2021/07/17 03:55:05;;;;;;;6.43;0.88;;;;;;;;;;5089850;28;20032;-62
2021/07/17 03:57:31;;;;;;;1.52;0.80;;;;;;;;;;5090715;28;20483;-62
2021/07/17 03:59:58;;;;;;;0.80;0.80;;;;;;;;;;5089513;28;20097;-61
2021/07/17 04:02:29;;;;;;;1.95;0.80;;;;;;;;;;5087957;28;20048;-61
2021/07/17 04:04:57;;;;;;;2.65;0.80;;;;;;;;;;5092702;28;20032;-61
2021/07/17 04:07:24;;;;;;;1.65;0.82;;;;;;;;;;5090540;28;20089;-62
2021/07/17 04:09:51;;;;;;;2.30;0.85;;;;;;;;;;5091376;28;20105;-62
2021/07/17 04:12:17;;;;;;;0.90;0.80;;;;;;;;;;5084977;28;20032;-62
2021/07/17 04:14:44;;;;;;;2.08;0.90;;;;;;;;;;5087032;28;20438;-62
2021/07/17 04:17:11;;;;;;;5.63;0.90;;;;;;;;;;5092756;28;20048;-62
2021/07/17 04:19:38;;;;;;;2.22;0.80;;;;;;;;;;5087723;28;20075;-62
2021/07/17 04:22:04;;;;;;;1.27;0.85;;;;;;;;;;5084563;28;20460;-62
2021/07/17 04:24:31;;;;;;;1.55;1.10;;;;;;;;;;5090164;28;20071;-62
2021/07/17 04:26:58;;;;;;;0.70;0.70;;;;;;;;;;5089852;28;20464;-62
2021/07/17 04:29:25;;;;;;;1.45;0.70;;;;;;;;;;5084290;28;20085;-63
2021/07/17 04:31:52;;;;;;;0.90;0.70;;;;;;;;;;5087269;28;20036;-61
2021/07/17 04:34:19;;;;;;;0.70;0.70;;;;;;;;;;5089845;28;20048;-62
2021/07/17 04:36:45;;;;;;;1.00;0.75;;;;;;;;;;5084637;28;20642;-62
2021/07/17 04:39:12;;;;;;;0.80;0.80;;;;;;;;;;5084220;28;20069;-62
2021/07/17 04:41:39;;;;;;;2.35;1.13;;;;;;;;;;5088500;28;20524;-62
2021/07/17 04:44:06;;;;;;;0.88;0.80;;;;;;;;;;5085467;28;20445;-61
2021/07/17 04:46:33;;;;;;;1.20;0.80;;;;;;;;;;5075204;28;20040;-62
2021/07/17 04:49:00;;;;;;;1.20;0.75;;;;;;;;;;5090351;28;20048;-62
2021/07/17 04:51:27;;;;;;;3.40;0.93;;;;;;;;;;5089649;28;20438;-62
2021/07/17 04:53:53;;;;;;;2.03;0.90;;;;;;;;;;5087955;28;20036;-62
2021/07/17 04:56:20;;;;;;;2.28;0.80;;;;;;;;;;5089733;28;20044;-62
2021/07/17 04:58:47;;;;;;;0.80;0.80;;;;;;;;;;5089193;28;20068;-62
2021/07/17 05:01:14;;;;;;;1.25;0.80;;;;;;;;;;5090708;28;20040;-62
2021/07/17 05:03:41;;;;;;;1.50;0.90;;;;;;;;;;5080711;28;20035;-62
2021/07/17 05:06:07;;;;;;;2.60;0.75;;;;;;;;;;5085638;28;20060;-61
2021/07/17 05:08:34;;;;;;;0.80;0.80;;;;;;;;;;5084196;28;20051;-61
2021/07/17 05:11:01;;;;;;;7.63;0.90;;;;;;;;;;5087911;28;20491;-61
2021/07/17 05:13:32;;;;;;;4.40;0.90;;;;;;;;;;5074570;28;20068;-61
2021/07/17 05:15:59;;;;;;;1.67;0.80;;;;;;;;;;5083098;28;20543;-61
2021/07/17 05:18:26;;;;;;;0.90;0.90;;;;;;;;;;5080474;28;20045;-61
2021/07/17 05:20:52;;;;;;;2.30;0.80;;;;;;;;;;5081302;28;20134;-61
2021/07/17 05:23:19;;;;;;;1.98;0.80;;;;;;;;;;5080971;28;20040;-61
2021/07/17 05:25:46;;;;;;;7.10;1.90;;;;;;;;;;5090027;28;20040;-61
2021/07/17 05:28:13;;;;;;;2.30;1.05;;;;;;;;;;5087987;28;20056;-61
2021/07/17 05:30:40;;;;;;;1.00;0.90;;;;;;;;;;5089164;28;20040;-61
2021/07/17 05:33:07;;;;;;;6.65;1.02;;;;;;;;;;5081933;28;20064;-60
2021/07/17 05:35:33;;;;;;;3.22;0.73;;;;;;;;;;5079697;28;20461;-61
2021/07/17 05:38:00;;;;;;;2.55;0.95;;;;;;;;;;5078871;28;20056;-61
2021/07/17 05:40:27;;;;;;;2.85;0.77;;;;;;;;;;5086728;28;20051;-60
2021/07/17 05:42:54;;;;;;;1.17;0.80;;;;;;;;;;5084509;28;20044;-61
2021/07/17 05:45:20;;;;;;;7.00;0.80;;;;;;;;;;5080789;28;20036;-61
2021/07/17 05:47:47;;;;;;;0.70;0.70;;;;;;;;;;5080497;28;20067;-61
2021/07/17 05:50:14;;;;;;;2.70;0.75;;;;;;;;;;5090205;28;20035;-60
2021/07/17 05:52:41;;;;;;;1.50;0.80;;;;;;;;;;5087479;28;20086;-61
2021/07/17 05:55:08;;;;;;;2.03;0.90;;;;;;;;;;5088563;28;20081;-61
2021/07/17 05:57:35;;;;;;;4.78;1.00;;;;;;;;;;5082037;28;20469;-61
2021/07/17 06:00:03;;;;;;;5.65;1.00;;;;;;;;;;5077417;28;20075;-59
2021/07/17 06:02:30;;;;;;;2.55;1.00;;;;;;;;;;5076652;28;20072;-59
2021/07/17 06:04:58;;;;;;;1.95;0.85;;;;;;;;;;5086758;28;20032;-59
2021/07/17 06:07:24;;;;;;;2.40;0.90;;;;;;;;;;5069920;28;20110;-59
2021/07/17 06:09:51;;;;;;;1.80;0.90;;;;;;;;;;5088340;28;20119;-60
2021/07/17 06:12:18;;;;;;;3.03;1.35;;;;;;;;;;5091696;28;20032;-59
2021/07/17 06:14:44;;;;;;;4.45;0.90;;;;;;;;;;5088096;28;20508;-60
2021/07/17 06:17:13;;;;;;;3.03;1.10;;;;;;;;;;5089667;28;20064;-60
2021/07/17 06:19:41;;;;;;;1.02;0.90;;;;;;;;;;5074594;28;20040;-60
2021/07/17 06:22:08;;;;;;;3.83;0.98;;;;;;;;;;5085133;28;20408;-60
2021/07/17 06:24:36;;;;;;;1.00;1.00;;;;;;;;;;5085228;28;20432;-60
2021/07/17 06:27:03;;;;;;;5.72;0.90;;;;;;;;;;5091262;28;20059;-60
2021/07/17 06:29:30;;;;;;;6.25;1.00;;;;;;;;;;5087341;28;20073;-59
2021/07/17 06:31:57;;;;;;;3.33;0.93;;;;;;;;;;5093503;28;20122;-60
2021/07/17 06:34:24;;;;;;;2.47;0.90;;;;;;;;;;5094124;28;20032;-60
2021/07/17 06:36:51;;;;;;;1.55;0.82;;;;;;;;;;5093133;28;20039;-60
2021/07/17 06:39:18;;;;;;;1.95;0.90;;;;;;;;;;5092116;28;20047;-60
2021/07/17 06:41:44;;;;;;;7.72;0.90;;;;;;;;;;5092145;28;20353;-60
2021/07/17 06:44:11;;;;;;;2.58;0.90;;;;;;;;;;5082458;28;20508;-60
2021/07/17 06:46:38;;;;;;;4.60;0.80;;;;;;;;;;5091487;28;20032;-60
2021/07/17 06:49:05;;;;;;;1.88;0.90;;;;;;;;;;5093117;28;20039;-60
2021/07/17 06:51:32;;;;;;;1.45;1.10;;;;;;;;;;5089822;28;20040;-60
2021/07/17 06:53:59;;;;;;;0.88;0.88;;;;;;;;;;5092483;28;20031;-60
2021/07/17 06:56:26;;;;;;;3.25;0.90;;;;;;;;;;5075042;28;20086;-60
2021/07/17 06:58:57;;;;;;;1.00;1.00;;;;;;;;;;5092823;28;20076;-59
2021/07/17 07:01:23;;;;;;;2.15;1.70;;;;;;;;;;5092918;28;20055;-60
2021/07/17 07:03:51;;;;;;;4.97;1.00;;;;;;;;;;5090943;28;20036;-60
2021/07/17 07:06:18;;;;;;;0.95;0.90;;;;;;;;;;5093615;28;20542;-60
2021/07/17 07:08:45;;;;;;;5.43;2.20;;;;;;;;;;5092920;28;20067;-60
2021/07/17 07:11:12;;;;;;;0.90;0.90;;;;;;;;;;5091181;28;20058;-60
2021/07/17 07:13:38;;;;;;;2.63;1.08;;;;;;;;;;5093485;28;20088;-60
2021/07/17 07:16:05;;;;;;;1.23;0.90;;;;;;;;;;5094384;28;20070;-60
2021/07/17 07:18:32;;;;;;;2.05;0.90;;;;;;;;;;5091953;28;20139;-60
2021/07/17 07:20:59;;;;;;;1.38;1.00;;;;;;;;;;5090957;28;20562;-61
2021/07/17 07:23:26;;;;;;;4.80;1.50;;;;;;;;;;5091540;28;20134;-60
2021/07/17 07:25:53;;;;;;;2.78;1.27;;;;;;;;;;5092066;28;20464;-60
2021/07/17 07:28:20;;;;;;;1.00;1.00;;;;;;;;;;5088205;28;20043;-60
2021/07/17 07:30:46;;;;;;;3.28;0.88;;;;;;;;;;5087226;28;20098;-60
2021/07/17 07:33:13;;;;;;;3.40;1.33;;;;;;;;;;5088424;28;20036;-60
2021/07/17 07:35:40;;;;;;;3.78;1.02;;;;;;;;;;5059972;28;20048;-60
2021/07/17 07:38:07;;;;;;;1.27;1.27;;;;;;;;;;5093160;28;20064;-60
2021/07/17 07:40:33;;;;;;;1.00;1.00;;;;;;;;;;5091462;28;20051;-60
2021/07/17 07:43:00;;;;;;;5.45;1.20;;;;;;;;;;5085153;28;20472;-61
2021/07/17 07:45:27;;;;;;;1.10;1.00;;;;;;;;;;5093004;28;20105;-60
2021/07/17 07:47:54;;;;;;;1.65;1.55;;;;;;;;;;5090709;28;20051;-60
2021/07/17 07:50:21;;;;;;;1.58;0.90;;;;;;;;;;5094213;28;20480;-61
2021/07/17 07:52:48;;;;;;;1.10;1.10;;;;;;;;;;5088753;28;20067;-60
2021/07/17 07:55:15;;;;;;;3.80;1.20;;;;;;;;;;5087543;28;20040;-61
2021/07/17 07:57:42;;;;;;;4.07;1.00;;;;;;;;;;5090959;28;20056;-60
2021/07/17 08:00:09;;;;;;;1.00;0.93;;;;;;;;;;5091372;28;20039;-60
2021/07/17 08:02:55;;;;;;;4.68;1.10;;;;;;;;;;5091771;28;20372;-60
2021/07/17 08:05:23;;;;;;;1.52;1.20;;;;;;;;;;5092299;28;20040;-60
2021/07/17 08:07:50;;;;;;;1.63;1.20;;;;;;;;;;5069952;28;20078;-60
2021/07/17 08:10:16;;;;;;;1.35;1.20;;;;;;;;;;5087774;28;20036;-60
2021/07/17 08:12:44;;;;;;;0.95;0.95;;;;;;;;;;5090026;28;20582;-60
2021/07/17 08:15:10;;;;;;;1.98;1.45;;;;;;;;;;5093208;28;20418;-60
2021/07/17 08:17:37;;;;;;;1.15;1.00;;;;;;;;;;5090752;28;20427;-60
2021/07/17 08:20:09;;;;;;;5.13;1.00;;;;;;;;;;5091238;28;20089;-60
2021/07/17 08:22:36;;;;;;;1.20;1.20;;;;;;;;;;5088200;28;20040;-60
2021/07/17 08:25:04;;;;;;;1.10;1.08;;;;;;;;;;5084184;28;20036;-60
2021/07/17 08:27:31;;;;;;;1.15;1.13;;;;;;;;;;5084801;28;20071;-60
2021/07/17 08:29:58;;;;;;;5.13;1.27;;;;;;;;;;5079518;28;20044;-60
2021/07/17 08:32:25;;;;;;;3.80;1.05;;;;;;;;;;5090316;28;20093;-60
2021/07/17 08:34:55;;;;;;;5.25;1.73;;;;;;;;;;5088868;28;20035;-61
2021/07/17 08:37:21;;;;;;;3.63;1.20;;;;;;;;;;5082137;28;20127;-61
2021/07/17 08:39:48;;;;;;;3.15;1.27;;;;;;;;;;5091135;28;20036;-60
2021/07/17 08:42:16;;;;;;;1.38;1.05;;;;;;;;;;5104383;28;20055;-60
2021/07/17 08:44:47;;;;;;;1.30;1.20;;;;;;;;;;5089962;28;20115;-60
2021/07/17 08:47:15;;;;;;;1.42;1.40;;;;;;;;;;5089571;28;20040;-61
2021/07/17 08:49:46;;;;;;;3.92;1.45;;;;;;;;;;5088441;28;20452;-60
2021/07/17 08:52:13;;;;;;;1.10;1.10;;;;;;;;;;5088741;28;20072;-60
2021/07/17 08:54:40;;;;;;;1.33;1.23;;;;;;;;;;5084271;28;20032;-60
2021/07/17 08:57:10;;;;;;;1.45;1.38;;;;;;;;;;5087506;28;20048;-61
2021/07/17 08:59:38;;;;;;;2.28;1.30;;;;;;;;;;5083079;28;20036;-60
2021/07/17 09:02:05;;;;;;;1.83;1.38;;;;;;;;;;5103355;28;20071;-61
2021/07/17 09:04:33;;;;;;;1.15;1.10;;;;;;;;;;5089516;28;20434;-60
2021/07/17 09:07:00;;;;;;;6.03;1.30;;;;;;;;;;5078661;28;20040;-61
2021/07/17 09:09:28;;;;;;;1.73;1.63;;;;;;;;;;5089233;28;20071;-60
2021/07/17 09:11:55;;;;;;;2.28;1.10;;;;;;;;;;5088369;28;20083;-60
2021/07/17 09:14:35;;;;;;;1.23;1.17;;;;;;;;;;5089863;28;20086;-61
2021/07/17 09:17:03;;;;;;;4.00;1.63;;;;;;;;;;5091660;28;20044;-61
2021/07/17 09:19:31;;;;;;;2.20;0.95;;;;;;;;;;5087732;28;20420;-60
2021/07/17 09:21:57;;;;;;;1.52;1.00;;;;;;;;;;5087166;28;20080;-61
2021/07/17 09:24:25;;;;;;;2.83;1.10;;;;;;;;;;5086828;28;20082;-60
2021/07/17 09:26:54;;;;;;;3.70;1.25;;;;;;;;;;5077541;28;20128;-60
2021/07/17 09:29:20;;;;;;;4.10;0.90;;;;;;;;;;5088125;28;20099;-60
2021/07/17 09:31:52;;;;;;;1.90;1.45;;;;;;;;;;5090317;28;20049;-60
2021/07/17 09:34:24;;;;;;;2.88;1.10;;;;;;;;;;5089936;28;20028;-60
2021/07/17 09:36:52;;;;;;;5.95;1.30;;;;;;;;;;5088086;28;20075;-60
2021/07/17 09:39:21;;;;;;;1.55;0.90;;;;;;;;;;5083947;28;20051;-60
2021/07/17 09:41:53;;;;;;;0.80;0.80;;;;;;;;;;5088895;28;20714;-61
2021/07/17 09:44:22;;;;;;;0.80;0.80;;;;;;;;;;5077116;28;20078;-61
2021/07/17 09:46:48;;;;;;;1.38;1.10;;;;;;;;;;5090650;28;20490;-60
2021/07/17 09:49:19;;;;;;;1.40;1.30;;;;;;;;;;5088472;28;20111;-61
2021/07/17 09:51:46;;;;;;;0.90;0.90;;;;;;;;;;5086317;28;20750;-61
2021/07/17 09:54:13;;;;;;;0.80;0.80;;;;;;;;;;5085042;28;20036;-61
2021/07/17 09:56:41;;;;;;;2.72;0.80;;;;;;;;;;5087430;28;20128;-61
2021/07/17 09:59:11;;;;;;;0.80;0.80;;;;;;;;;;5087924;28;20520;-61
2021/07/17 10:01:43;;;;;;;0.80;0.80;;;;;;;;;;5088294;28;20451;-61
2021/07/17 10:04:11;;;;;;;2.08;1.33;;;;;;;;;;5088082;28;20450;-61
2021/07/17 10:06:44;;;;;;;0.70;0.70;;;;;;;;;;5085687;28;20036;-61
2021/07/17 10:09:14;;;;;;;1.90;0.80;;;;;;;;;;5086720;28;20038;-60
2021/07/17 10:11:42;;;;;;;1.10;0.90;;;;;;;;;;5084279;28;20047;-61
2021/07/17 10:14:16;;;;;;;3.80;0.80;;;;;;;;;;5088078;28;20052;-61
2021/07/17 10:16:43;;;;;;;1.33;0.77;;;;;;;;;;5089738;28;20044;-60
2021/07/17 10:19:12;;;;;;;0.80;0.80;;;;;;;;;;5087362;28;20114;-60
2021/07/17 10:21:40;;;;;;;0.80;0.80;;;;;;;;;;5085477;28;20067;-60
2021/07/17 10:24:06;;;;;;;0.80;0.80;;;;;;;;;;5081799;28;20048;-60
2021/07/17 10:26:34;;;;;;;0.80;0.80;;;;;;;;;;5087734;28;20036;-61
2021/07/17 10:29:03;;;;;;;0.80;0.80;;;;;;;;;;5087481;28;20579;-60
2021/07/17 10:31:30;;;;;;;0.70;0.70;;;;;;;;;;5088467;28;20036;-60
2021/07/17 10:33:57;;;;;;;0.68;0.68;;;;;;;;;;5088288;28;20085;-60
2021/07/17 10:36:24;;;;;;;0.70;0.70;;;;;;;;;;5086236;28;20070;-60
2021/07/17 10:38:54;;;;;;;1.20;0.60;;;;;;;;;;5078253;28;20044;-61
2021/07/17 10:41:22;;;;;;;0.60;0.60;;;;;;;;;;5088048;28;20073;-60
2021/07/17 10:43:53;;;;;;;1.80;0.70;;;;;;;;;;5082766;28;20396;-61
2021/07/17 10:46:52;;;;;;;0.70;0.70;;;;;;;;;;5089113;28;20033;-60
2021/07/17 10:49:34;;;;;;;1.20;0.75;;;;;;;;;;5007183;28;20132;-61
2021/07/17 10:52:01;;;;;;;0.70;0.70;;;;;;;;;;5006869;28;20049;-60
2021/07/17 10:54:30;;;;;;;0.70;0.70;;;;;;;;;;5004883;28;20536;-59
2021/07/17 10:56:57;;;;;;;0.68;0.68;;;;;;;;;;5007440;28;20081;-59
2021/07/17 10:59:24;;;;;;;1.38;0.70;;;;;;;;;;5006361;28;20054;-60
2021/07/17 11:01:56;;;;;;;0.60;0.60;;;;;;;;;;5005567;28;20085;-60
2021/07/17 11:04:41;;;;;;;0.70;0.70;;;;;;;;;;5006839;28;20042;-61
2021/07/17 11:07:16;;;;;;;0.60;0.60;;;;;;;;;;5007652;28;20474;-60
2021/07/17 11:09:50;;;;;;;0.60;0.60;;;;;;;;;;5005006;28;20042;-60
2021/07/17 11:12:20;;;;;;;0.70;0.70;;;;;;;;;;5009443;28;20383;-60
2021/07/17 11:14:48;;;;;;;0.70;0.70;;;;;;;;;;5010341;28;20037;-60
2021/07/17 11:17:33;;;;;;;0.88;0.80;;;;;;;;;;5006473;28;20107;-59
2021/07/17 11:20:18;;;;;;;0.65;0.65;;;;;;;;;;5010013;28;20395;-60
2021/07/17 11:22:58;;;;;;;0.60;0.60;;;;;;;;;;5010342;28;20144;-60
2021/07/17 11:25:25;;;;;;;1.58;0.60;;;;;;;;;;5050653;28;20439;-60
2021/07/17 11:27:51;;;;;;;0.60;0.60;;;;;;;;;;5091622;28;20438;-60
2021/07/17 11:30:19;;;;;;;0.80;0.60;;;;;;;;;;5091677;28;20077;-60
2021/07/17 11:33:04;;;;;;;0.80;0.80;;;;;;;;;;5081871;28;20083;-60
2021/07/17 11:35:32;;;;;;;0.60;0.60;;;;;;;;;;5087829;28;20733;-60
2021/07/17 11:38:02;;;;;;;0.70;0.70;;;;;;;;;;5093260;28;20055;-60
2021/07/17 11:40:28;;;;;;;0.60;0.60;;;;;;;;;;5092481;28;20040;-60
2021/07/17 11:42:59;;;;;;;0.60;0.60;;;;;;;;;;5085095;28;20044;-61
2021/07/17 11:45:26;;;;;;;0.60;0.60;;;;;;;;;;5082350;28;20071;-60
2021/07/17 11:47:53;;;;;;;0.63;0.60;;;;;;;;;;5083731;28;20036;-60
2021/07/17 11:50:21;;;;;;;0.60;0.57;;;;;;;;;;5093381;28;20039;-61
2021/07/17 11:52:48;;;;;;;0.70;0.70;;;;;;;;;;5091260;28;20115;-60
2021/07/17 11:55:15;;;;;;;0.60;0.60;;;;;;;;;;5083077;28;20028;-60
2021/07/17 11:57:45;;;;;;;2.85;0.60;;;;;;;;;;5091326;28;20044;-60
2021/07/17 12:00:15;;;;;;;0.60;0.60;;;;;;;;;;5089253;28;20043;-60
2021/07/17 12:02:59;;;;;;;1.55;0.60;;;;;;;;;;5077942;28;20537;-59
2021/07/17 12:05:31;;;;;;;0.60;0.60;;;;;;;;;;5088988;28;20510;-60
2021/07/17 12:07:58;;;;;;;2.05;0.63;;;;;;;;;;5080778;28;20062;-59
2021/07/17 12:10:26;;;;;;;1.45;0.50;;;;;;;;;;5093403;28;20651;-61
2021/07/17 12:12:57;;;;;;;2.10;1.17;;;;;;;;;;5070204;28;20143;-60
2021/07/17 12:15:33;;;;;;;0.50;0.50;;;;;;;;;;5091193;28;20036;-60
2021/07/17 12:18:02;;;;;;;0.50;0.50;;;;;;;;;;5087108;28;20056;-60
2021/07/17 12:20:35;;;;;;;0.60;0.60;;;;;;;;;;5087887;28;20551;-60
2021/07/17 12:23:02;;;;;;;;;;;;;;;;;;5088700;28;20055;-61
2021/07/17 12:25:33;;;;;;;0.65;0.60;;;;;;;;;;5089565;28;20445;-60
2021/07/17 12:28:07;;;;;;;0.90;0.50;;;;;;;;;;5074659;28;20039;-60
2021/07/17 12:30:45;;;;;;;0.50;0.50;;;;;;;;;;5089614;28;20707;-59
2021/07/17 12:33:21;;;;;;;1.20;0.50;;;;;;;;;;5090829;28;20064;-60
2021/07/17 12:35:49;;;;;;;0.50;0.50;;;;;;;;;;5090976;28;20040;-60
2021/07/17 12:38:16;;;;;;;0.60;0.60;;;;;;;;;;5091052;28;20553;-60
2021/07/17 12:40:53;;;;;;;0.77;0.50;;;;;;;;;;5090213;28;20126;-60
2021/07/17 12:43:24;;;;;;;0.60;0.60;;;;;;;;;;5090557;28;20116;-61
2021/07/17 12:45:58;;;;;;;0.63;0.63;;;;;;;;;;5090903;28;20032;-61
2021/07/17 12:48:25;;;;;;;1.45;0.60;;;;;;;;;;5084774;28;20048;-62
2021/07/17 12:51:18;;;;;;;0.50;0.50;;;;;;;;;;5089849;28;20530;-61
2021/07/17 12:53:45;;;;;;;0.70;0.70;;;;;;;;;;5074078;28;20097;-61
2021/07/17 12:56:26;;;;;;;0.50;0.50;;;;;;;;;;5087048;28;20059;-62
2021/07/17 12:58:53;;;;;;;0.65;0.60;;;;;;;;;;5089502;28;20081;-61
2021/07/17 13:01:20;;;;;;;0.60;0.60;;;;;;;;;;5090378;28;20060;-61
2021/07/17 13:03:47;;;;;;;0.60;0.60;;;;;;;;;;5090612;28;20032;-61
2021/07/17 13:06:15;;;;;;;1.20;0.60;;;;;;;;;;5089790;28;20494;-61
2021/07/17 13:08:42;;;;;;;1.13;0.60;;;;;;;;;;5090706;28;20082;-61
2021/07/17 13:11:17;;;;;;;0.68;0.60;;;;;;;;;;5090851;28;20048;-60
2021/07/17 13:13:48;;;;;;;1.75;1.05;;;;;;;;;;5091122;28;20499;-60
2021/07/17 13:16:23;;;;;;;0.60;0.60;;;;;;;;;;5089245;28;20054;-60
2021/07/17 13:18:50;;;;;;;1.70;0.60;;;;;;;;;;5077926;28;20404;-60
2021/07/17 13:21:18;;;;;;;0.60;0.60;;;;;;;;;;5090164;28;20535;-60
2021/07/17 13:23:56;;;;;;;0.60;0.60;;;;;;;;;;5088624;28;20036;-61
2021/07/17 13:26:25;;;;;;;0.60;0.60;;;;;;;;;;5089490;28;20450;-61
2021/07/17 13:28:53;;;;;;;1.55;0.60;;;;;;;;;;5090681;28;20043;-61
2021/07/17 13:31:22;;;;;;;0.60;0.60;;;;;;;;;;5083901;28;20071;-61
2021/07/17 13:33:49;;;;;;;1.00;0.60;;;;;;;;;;5088424;28;20467;-61
2021/07/17 13:36:23;;;;;;;0.82;0.70;;;;;;;;;;5090971;28;20040;-61
2021/07/17 13:38:58;;;;;;;0.60;0.60;;;;;;;;;;5076824;28;20111;-61
2021/07/17 13:41:25;;;;;;;0.60;0.60;;;;;;;;;;5091370;28;20028;-61
2021/07/17 13:43:52;;;;;;;0.63;0.63;;;;;;;;;;5086471;28;20118;-61
2021/07/17 13:46:22;;;;;;;0.75;0.75;;;;;;;;;;5091096;28;20055;-61
2021/07/17 13:48:49;;;;;;;1.05;0.60;;;;;;;;;;5084260;28;20056;-61
2021/07/17 13:51:17;;;;;;;1.15;1.15;;;;;;;;;;5075595;28;20044;-61
2021/07/17 13:53:44;;;;;;;0.60;0.60;;;;;;;;;;5088390;28;20395;-61
2021/07/17 13:56:12;;;;;;;0.68;0.60;;;;;;;;;;5088061;28;20105;-61
2021/07/17 13:58:39;;;;;;;0.70;0.70;;;;;;;;;;5090766;28;20036;-60
2021/07/17 14:01:21;;;;;;;3.83;0.70;;;;;;;;;;5087814;28;20097;-60
2021/07/17 14:03:48;;;;;;;1.45;1.00;;;;;;;;;;5089499;28;20430;-60
2021/07/17 14:06:16;;;;;;;1.58;0.60;;;;;;;;;;5085606;28;20074;-60
2021/07/17 14:08:44;;;;;;;0.70;0.70;;;;;;;;;;5075506;28;20036;-60
2021/07/17 14:11:12;;;;;;;3.20;0.70;;;;;;;;;;5089669;28;20083;-61
2021/07/17 14:13:39;;;;;;;1.42;0.70;;;;;;;;;;5089830;28;20134;-60
2021/07/17 14:16:07;;;;;;;0.70;0.70;;;;;;;;;;5089424;28;20037;-60
2021/07/17 14:18:34;;;;;;;0.70;0.70;;;;;;;;;;5086704;28;20048;-60
2021/07/17 14:21:01;;;;;;;0.70;0.70;;;;;;;;;;5087673;28;20068;-61
2021/07/17 14:23:27;;;;;;;0.70;0.70;;;;;;;;;;5073900;28;20039;-61
2021/07/17 14:25:55;;;;;;;0.70;0.70;;;;;;;;;;5089879;28;20051;-61
2021/07/17 14:28:21;;;;;;;0.70;0.70;;;;;;;;;;5089370;28;20438;-61
2021/07/17 14:30:48;;;;;;;2.17;0.63;;;;;;;;;;5087441;28;20036;-61
2021/07/17 14:33:15;;;;;;;0.68;0.68;;;;;;;;;;5075260;28;20047;-61
2021/07/17 14:35:43;;;;;;;0.90;0.80;;;;;;;;;;5086701;28;20029;-60
2021/07/17 14:38:10;;;;;;;0.85;0.70;;;;;;;;;;5086174;28;20076;-61
2021/07/17 14:40:37;;;;;;;0.70;0.70;;;;;;;;;;5087878;28;20048;-61
2021/07/17 14:43:04;;;;;;;1.20;0.80;;;;;;;;;;5088301;28;20044;-61
2021/07/17 14:45:34;;;;;;;0.70;0.70;;;;;;;;;;5083809;28;20048;-61
2021/07/17 14:48:01;;;;;;;1.40;0.70;;;;;;;;;;5090968;28;20063;-61
2021/07/17 14:50:35;;;;;;;0.80;0.80;;;;;;;;;;5089817;28;20477;-61